createdAt,value
2022-10-13T00:00:17.721Z,959.71
2022-10-13T00:02:44.067Z,959.67
2022-10-13T00:05:10.382Z,959.67
2022-10-13T00:07:36.773Z,959.71
2022-10-13T00:10:03.111Z,959.70
2022-10-13T00:12:29.449Z,959.68
2022-10-13T00:14:55.782Z,959.73
2022-10-13T00:17:22.138Z,959.77
2022-10-13T00:19:48.471Z,959.67
2022-10-13T00:22:14.815Z,959.59
2022-10-13T00:24:41.130Z,959.58
2022-10-13T00:27:07.500Z,959.57
2022-10-13T00:29:33.836Z,959.54
2022-10-13T00:32:00.178Z,959.56
2022-10-13T00:34:26.531Z,959.53
2022-10-13T00:36:52.861Z,959.49
2022-10-13T00:39:19.189Z,959.49
2022-10-13T00:41:45.512Z,959.43
2022-10-13T00:44:11.905Z,959.42
2022-10-13T00:46:38.223Z,959.39
2022-10-13T00:49:04.542Z,959.41
2022-10-13T00:51:30.918Z,959.34
2022-10-13T00:53:57.237Z,959.35
2022-10-13T00:56:23.580Z,959.41
2022-10-13T00:58:50.032Z,959.38
2022-10-13T01:01:16.421Z,959.34
2022-10-13T01:03:42.712Z,959.39
2022-10-13T01:06:09.098Z,959.38
2022-10-13T01:08:35.419Z,959.30
2022-10-13T01:11:01.772Z,959.41
2022-10-13T01:13:28.087Z,959.40
2022-10-13T01:15:54.436Z,959.36
2022-10-13T01:18:20.750Z,959.40
2022-10-13T01:20:47.075Z,959.39
2022-10-13T01:23:13.400Z,959.35
2022-10-13T01:25:39.764Z,959.40
2022-10-13T01:28:06.087Z,959.42
2022-10-13T01:30:32.420Z,959.33
2022-10-13T01:32:58.743Z,959.38
2022-10-13T01:35:25.068Z,959.36
2022-10-13T01:37:51.427Z,959.33
2022-10-13T01:40:17.772Z,959.33
2022-10-13T01:42:44.087Z,959.33
2022-10-13T01:45:10.425Z,959.38
2022-10-13T01:47:36.771Z,959.40
2022-10-13T01:50:03.112Z,959.38
2022-10-13T01:52:29.478Z,959.34
2022-10-13T01:54:55.821Z,959.36
2022-10-13T01:57:22.149Z,959.35
2022-10-13T01:59:48.502Z,959.41
2022-10-13T02:02:14.823Z,959.33
2022-10-13T02:04:41.166Z,959.28
2022-10-13T02:07:07.518Z,959.24
2022-10-13T02:09:33.863Z,959.28
2022-10-13T02:12:00.176Z,959.28
2022-10-13T02:14:26.530Z,959.33
2022-10-13T02:16:52.884Z,959.36
2022-10-13T02:19:19.230Z,959.28
2022-10-13T02:21:45.547Z,959.26
2022-10-13T02:24:11.936Z,959.26
2022-10-13T02:26:38.277Z,959.12
2022-10-13T02:29:04.595Z,959.18
2022-10-13T02:31:30.944Z,959.20
2022-10-13T02:33:57.281Z,959.11
2022-10-13T02:36:23.664Z,959.13
2022-10-13T02:38:49.994Z,959.11
2022-10-13T02:41:16.327Z,959.10
2022-10-13T02:43:42.657Z,959.09
2022-10-13T02:46:08.996Z,959.06
2022-10-13T02:48:35.488Z,959.07
2022-10-13T02:51:01.768Z,959.03
2022-10-13T02:53:28.090Z,959.07
2022-10-13T02:55:54.437Z,959.05
2022-10-13T02:58:20.760Z,958.97
2022-10-13T03:00:47.176Z,958.99
2022-10-13T03:03:13.439Z,958.98
2022-10-13T03:05:39.763Z,958.93
2022-10-13T03:08:06.124Z,958.94
2022-10-13T03:10:32.438Z,958.99
2022-10-13T03:12:58.794Z,958.93
2022-10-13T03:15:25.185Z,958.91
2022-10-13T03:17:51.525Z,958.96
2022-10-13T03:20:17.862Z,959.06
2022-10-13T03:22:48.806Z,959.02
2022-10-13T03:25:10.537Z,959.13
2022-10-13T03:27:36.895Z,959.11
2022-10-13T03:30:03.218Z,959.10
2022-10-13T03:32:29.544Z,959.12
2022-10-13T03:34:55.891Z,959.13
2022-10-13T03:37:22.232Z,959.06
2022-10-13T03:39:48.608Z,959.02
2022-10-13T03:42:14.947Z,959.09
2022-10-13T03:44:41.280Z,959.08
2022-10-13T03:47:07.624Z,959.05
2022-10-13T03:49:33.951Z,959.04
2022-10-13T03:52:00.294Z,959.05
2022-10-13T03:54:26.658Z,959.05
2022-10-13T03:56:52.970Z,959.07
2022-10-13T03:59:19.292Z,959.09
2022-10-13T04:01:45.667Z,959.05
2022-10-13T04:04:11.960Z,959.08
2022-10-13T04:06:38.283Z,959.00
2022-10-13T04:09:04.612Z,959.03
2022-10-13T04:11:30.959Z,958.92
2022-10-13T04:13:57.303Z,958.91
2022-10-13T04:16:23.635Z,958.94
2022-10-13T04:18:49.969Z,958.90
2022-10-13T04:21:16.306Z,958.97
2022-10-13T04:23:42.648Z,958.91
2022-10-13T04:26:08.983Z,959.05
2022-10-13T04:28:35.375Z,958.94
2022-10-13T04:31:01.666Z,958.91
2022-10-13T04:33:28.021Z,958.94
2022-10-13T04:35:54.382Z,958.88
2022-10-13T04:38:20.728Z,958.85
2022-10-13T04:40:47.068Z,958.86
2022-10-13T04:43:13.407Z,958.89
2022-10-13T04:45:39.720Z,958.86
2022-10-13T04:48:06.047Z,958.83
2022-10-13T04:50:32.441Z,958.87
2022-10-13T04:52:58.785Z,958.83
2022-10-13T04:55:25.104Z,958.93
2022-10-13T04:57:51.447Z,958.99
2022-10-13T05:00:17.788Z,959.02
2022-10-13T05:02:44.129Z,958.98
2022-10-13T05:05:10.450Z,959.00
2022-10-13T05:07:36.785Z,959.08
2022-10-13T05:10:03.124Z,959.04
2022-10-13T05:12:29.472Z,959.06
2022-10-13T05:14:55.805Z,959.05
2022-10-13T05:17:22.127Z,959.14
2022-10-13T05:19:48.514Z,959.12
2022-10-13T05:22:14.807Z,959.08
2022-10-13T05:24:41.129Z,959.15
2022-10-13T05:27:07.472Z,959.20
2022-10-13T05:29:33.793Z,959.25
2022-10-13T05:32:00.153Z,959.27
2022-10-13T05:34:26.526Z,959.30
2022-10-13T05:36:52.919Z,959.33
2022-10-13T05:39:19.258Z,959.36
2022-10-13T05:41:45.592Z,959.41
2022-10-13T05:44:11.920Z,959.41
2022-10-13T05:46:38.310Z,959.40
2022-10-13T05:49:04.648Z,959.51
2022-10-13T05:51:30.968Z,959.56
2022-10-13T05:53:57.951Z,959.59
2022-10-13T05:56:23.633Z,959.63
2022-10-13T05:58:49.971Z,959.52
2022-10-13T06:01:16.335Z,959.59
2022-10-13T06:03:42.676Z,959.65
2022-10-13T06:06:09.004Z,959.64
2022-10-13T06:08:35.404Z,959.63
2022-10-13T06:11:01.756Z,959.56
2022-10-13T06:13:28.099Z,959.52
2022-10-13T06:15:54.465Z,959.58
2022-10-13T06:18:20.798Z,959.60
2022-10-13T06:20:47.126Z,959.64
2022-10-13T06:23:13.515Z,959.66
2022-10-13T06:25:39.837Z,959.59
2022-10-13T06:28:06.159Z,959.62
2022-10-13T06:30:32.527Z,959.57
2022-10-13T06:32:58.867Z,959.57
2022-10-13T06:35:25.207Z,959.60
2022-10-13T06:37:51.550Z,959.53
2022-10-13T06:40:17.888Z,959.54
2022-10-13T06:42:44.234Z,959.55
2022-10-13T06:45:10.622Z,959.58
2022-10-13T06:47:36.936Z,959.57
2022-10-13T06:50:03.265Z,959.47
2022-10-13T06:52:29.590Z,959.42
2022-10-13T06:54:55.914Z,959.43
2022-10-13T06:57:22.253Z,959.44
2022-10-13T06:59:48.583Z,959.42
2022-10-13T07:02:14.902Z,959.42
2022-10-13T07:04:41.297Z,959.39
2022-10-13T07:07:07.616Z,959.37
2022-10-13T07:09:33.969Z,959.34
2022-10-13T07:12:00.372Z,959.43
2022-10-13T07:14:26.699Z,959.42
2022-10-13T07:16:53.019Z,959.46
2022-10-13T07:19:19.371Z,959.41
2022-10-13T07:21:45.704Z,959.46
2022-10-13T07:24:12.055Z,959.47
2022-10-13T07:26:38.394Z,959.43
2022-10-13T07:29:04.719Z,959.40
2022-10-13T07:31:31.055Z,959.43
2022-10-13T07:33:57.447Z,959.44
2022-10-13T07:36:23.783Z,959.49
2022-10-13T07:38:50.103Z,959.43
2022-10-13T07:41:16.465Z,959.47
2022-10-13T07:43:42.789Z,959.46
2022-10-13T07:46:09.115Z,959.39
2022-10-13T07:48:35.481Z,959.34
2022-10-13T07:51:01.819Z,959.34
2022-10-13T07:53:28.162Z,959.37
2022-10-13T07:55:54.503Z,959.38
2022-10-13T07:58:20.849Z,959.35
2022-10-13T08:00:47.195Z,959.30
2022-10-13T08:03:13.539Z,959.30
2022-10-13T08:05:39.905Z,959.28
2022-10-13T08:08:06.232Z,959.22
2022-10-13T08:10:32.556Z,959.27
2022-10-13T08:12:58.909Z,959.21
2022-10-13T08:15:25.251Z,959.25
2022-10-13T08:17:51.594Z,959.25
2022-10-13T08:20:17.988Z,959.20
2022-10-13T08:22:44.313Z,959.18
2022-10-13T08:25:10.639Z,959.19
2022-10-13T08:27:50.177Z,959.20
2022-10-13T08:30:03.349Z,959.14
2022-10-13T08:32:29.713Z,959.12
2022-10-13T08:34:56.151Z,959.01
2022-10-13T08:37:22.372Z,959.05
2022-10-13T08:39:48.735Z,959.05
2022-10-13T08:42:15.080Z,959.06
2022-10-13T08:45:15.703Z,958.99
2022-10-13T08:47:07.761Z,959.06
2022-10-13T08:49:34.085Z,959.01
2022-10-13T08:52:00.414Z,959.01
2022-10-13T08:54:26.759Z,958.97
2022-10-13T08:56:53.132Z,958.90
2022-10-13T08:59:19.417Z,958.79
2022-10-13T09:01:45.838Z,958.82
2022-10-13T09:04:12.130Z,958.84
2022-10-13T09:06:38.471Z,958.86
2022-10-13T09:09:04.827Z,958.74
2022-10-13T09:11:31.171Z,958.73
2022-10-13T09:13:57.507Z,958.71
2022-10-13T09:16:23.843Z,958.72
2022-10-13T09:18:50.173Z,958.63
2022-10-13T09:21:16.610Z,958.65
2022-10-13T09:23:42.952Z,958.59
2022-10-13T09:26:09.288Z,958.60
2022-10-13T09:28:35.698Z,958.47
2022-10-13T09:31:01.994Z,958.45
2022-10-13T09:33:28.335Z,958.36
2022-10-13T09:35:54.664Z,958.36
2022-10-13T09:38:21.004Z,958.36
2022-10-13T09:40:47.326Z,958.29
2022-10-13T09:43:13.694Z,958.35
2022-10-13T09:45:40.042Z,958.28
2022-10-13T09:48:06.359Z,958.31
2022-10-13T09:50:32.688Z,958.25
2022-10-13T09:52:59.008Z,958.28
2022-10-13T09:55:28.696Z,958.31
2022-10-13T09:57:51.704Z,958.31
2022-10-13T10:00:18.049Z,958.32
2022-10-13T10:02:44.411Z,958.27
2022-10-13T10:05:10.755Z,958.22
2022-10-13T10:07:37.099Z,958.17
2022-10-13T10:10:03.461Z,958.12
2022-10-13T10:12:29.801Z,958.08
2022-10-13T10:14:56.146Z,958.01
2022-10-13T10:17:22.799Z,958.00
2022-10-13T10:19:48.825Z,957.95
2022-10-13T10:22:15.170Z,957.88
2022-10-13T10:24:41.506Z,957.82
2022-10-13T10:27:07.935Z,957.83
2022-10-13T10:29:34.204Z,957.75
2022-10-13T10:32:00.546Z,957.83
2022-10-13T10:34:26.901Z,957.77
2022-10-13T10:36:53.228Z,957.75
2022-10-13T10:39:19.555Z,957.63
2022-10-13T10:41:45.903Z,957.69
2022-10-13T10:44:12.222Z,957.56
2022-10-13T10:46:38.582Z,957.56
2022-10-13T10:49:04.951Z,957.49
2022-10-13T10:51:31.300Z,957.47
2022-10-13T10:53:57.624Z,957.43
2022-10-13T10:56:23.982Z,957.35
2022-10-13T10:58:50.303Z,957.34
2022-10-13T11:01:16.689Z,957.35
2022-10-13T11:03:43.011Z,957.33
2022-10-13T11:06:09.329Z,957.33
2022-10-13T11:08:35.680Z,957.30
2022-10-13T11:11:02.042Z,957.25
2022-10-13T11:13:28.367Z,957.16
2022-10-13T11:15:54.720Z,957.10
2022-10-13T11:18:22.010Z,957.15
2022-10-13T11:20:47.390Z,957.06
2022-10-13T11:23:13.739Z,957.05
2022-10-13T11:25:40.077Z,956.99
2022-10-13T11:28:06.442Z,956.95
2022-10-13T11:30:32.786Z,956.96
2022-10-13T11:32:59.105Z,956.87
2022-10-13T11:35:25.435Z,956.79
2022-10-13T11:38:05.872Z,956.76
2022-10-13T11:40:18.216Z,956.74
2022-10-13T11:42:44.546Z,956.68
2022-10-13T11:45:10.896Z,956.68
2022-10-13T11:47:37.240Z,956.70
2022-10-13T11:50:03.569Z,956.59
2022-10-13T11:52:29.889Z,956.60
2022-10-13T11:54:56.240Z,956.58
2022-10-13T11:57:22.566Z,956.52
2022-10-13T11:59:48.937Z,956.53
2022-10-13T12:02:18.213Z,956.45
2022-10-13T12:04:46.366Z,956.45
2022-10-13T12:07:07.915Z,956.40
2022-10-13T12:09:34.238Z,956.43
2022-10-13T12:12:00.599Z,956.42
2022-10-13T12:14:26.945Z,956.37
2022-10-13T12:16:53.341Z,956.35
2022-10-13T12:19:19.603Z,956.35
2022-10-13T12:21:45.932Z,956.41
2022-10-13T12:24:12.269Z,956.42
2022-10-13T12:26:38.624Z,956.43
2022-10-13T12:29:04.960Z,956.33
2022-10-13T12:31:31.307Z,956.39
2022-10-13T12:33:57.651Z,956.35
2022-10-13T12:36:23.975Z,956.39
2022-10-13T12:38:50.318Z,956.40
2022-10-13T12:41:16.645Z,956.28
2022-10-13T12:43:42.987Z,956.25
2022-10-13T12:46:09.365Z,956.21
2022-10-13T12:48:35.697Z,956.16
2022-10-13T12:51:02.041Z,956.18
2022-10-13T12:53:28.444Z,956.10
2022-10-13T12:55:54.794Z,956.15
2022-10-13T12:58:21.137Z,956.16
2022-10-13T13:00:47.510Z,956.12
2022-10-13T13:03:13.837Z,956.12
2022-10-13T13:05:40.159Z,956.03
2022-10-13T13:08:06.491Z,956.04
2022-10-13T13:10:32.813Z,956.00
2022-10-13T13:12:59.174Z,955.98
2022-10-13T13:15:25.517Z,955.93
2022-10-13T13:17:59.433Z,955.83
2022-10-13T13:20:18.202Z,955.90
2022-10-13T13:22:44.547Z,955.91
2022-10-13T13:25:10.895Z,955.91
2022-10-13T13:27:37.265Z,955.92
2022-10-13T13:30:03.621Z,955.89
2022-10-13T13:32:29.937Z,955.84
2022-10-13T13:34:56.297Z,955.86
2022-10-13T13:37:22.766Z,955.84
2022-10-13T13:39:48.995Z,955.85
2022-10-13T13:42:15.368Z,955.89
2022-10-13T13:44:41.692Z,955.89
2022-10-13T13:47:08.042Z,955.84
2022-10-13T13:49:34.363Z,955.81
2022-10-13T13:52:00.689Z,955.81
2022-10-13T13:54:27.011Z,955.78
2022-10-13T13:56:56.580Z,955.84
2022-10-13T13:59:19.687Z,955.78
2022-10-13T14:01:46.105Z,955.76
2022-10-13T14:04:12.393Z,955.77
2022-10-13T14:06:38.769Z,955.74
2022-10-13T14:09:05.108Z,955.82
2022-10-13T14:11:31.452Z,955.77
2022-10-13T14:13:57.824Z,955.81
2022-10-13T14:16:24.168Z,955.70
2022-10-13T14:18:50.504Z,955.71
2022-10-13T14:21:16.857Z,955.73
2022-10-13T14:23:43.197Z,955.72
2022-10-13T14:26:09.534Z,955.73
2022-10-13T14:28:35.956Z,955.69
2022-10-13T14:31:02.257Z,955.71
2022-10-13T14:33:28.601Z,955.69
2022-10-13T14:35:54.940Z,955.70
2022-10-13T14:38:21.281Z,955.73
2022-10-13T14:40:47.625Z,955.74
2022-10-13T14:43:13.994Z,955.79
2022-10-13T14:45:40.333Z,955.72
2022-10-13T14:48:06.672Z,955.79
2022-10-13T14:50:33.006Z,955.75
2022-10-13T14:52:59.344Z,955.75
2022-10-13T14:55:25.692Z,955.76
2022-10-13T14:57:52.035Z,955.68
2022-10-13T15:00:18.383Z,955.76
2022-10-13T15:02:44.704Z,955.74
2022-10-13T15:05:11.051Z,955.71
2022-10-13T15:07:40.979Z,955.75
2022-10-13T15:10:06.226Z,955.79
2022-10-13T15:12:30.079Z,955.77
2022-10-13T15:14:56.406Z,955.76
2022-10-13T15:17:22.731Z,955.77
2022-10-13T15:19:49.073Z,955.77
2022-10-13T15:22:15.396Z,955.69
2022-10-13T15:24:41.723Z,955.68
2022-10-13T15:27:08.073Z,955.71
2022-10-13T15:29:34.410Z,955.70
2022-10-13T15:32:00.737Z,955.76
2022-10-13T15:34:27.114Z,955.74
2022-10-13T15:36:53.432Z,955.74
2022-10-13T15:39:19.761Z,955.75
2022-10-13T15:41:46.082Z,955.79
2022-10-13T15:44:12.412Z,955.75
2022-10-13T15:46:49.164Z,955.68
2022-10-13T15:49:05.077Z,955.65
2022-10-13T15:51:31.420Z,955.65
2022-10-13T15:53:57.767Z,955.77
2022-10-13T15:56:24.085Z,955.76
2022-10-13T15:58:50.433Z,955.77
2022-10-13T16:01:16.880Z,955.84
2022-10-13T16:03:43.119Z,955.81
2022-10-13T16:06:09.445Z,955.83
2022-10-13T16:08:35.790Z,955.83
2022-10-13T16:11:02.111Z,955.85
2022-10-13T16:13:28.456Z,955.90
2022-10-13T16:15:54.775Z,955.94
2022-10-13T16:18:21.102Z,955.93
2022-10-13T16:20:47.420Z,955.94
2022-10-13T16:23:13.741Z,955.88
2022-10-13T16:25:40.102Z,955.91
2022-10-13T16:28:06.450Z,955.95
2022-10-13T16:30:32.770Z,955.92
2022-10-13T16:32:59.127Z,955.96
2022-10-13T16:35:25.467Z,955.96
2022-10-13T16:37:51.795Z,955.89
2022-10-13T16:40:18.617Z,955.94
2022-10-13T16:42:44.967Z,956.01
2022-10-13T16:45:11.297Z,955.92
2022-10-13T16:47:37.644Z,955.95
2022-10-13T16:50:03.960Z,955.93
2022-10-13T16:52:30.308Z,955.99
2022-10-13T16:54:56.660Z,955.99
2022-10-13T16:57:23.254Z,955.99
2022-10-13T16:59:49.304Z,956.04
2022-10-13T17:02:15.703Z,956.02
2022-10-13T17:04:42.022Z,955.99
2022-10-13T17:07:08.374Z,956.05
2022-10-13T17:09:34.731Z,956.08
2022-10-13T17:12:01.049Z,955.97
2022-10-13T17:14:27.390Z,956.12
2022-10-13T17:16:57.593Z,956.04
2022-10-13T17:19:20.050Z,955.97
2022-10-13T17:21:46.375Z,955.97
2022-10-13T17:24:12.725Z,955.97
2022-10-13T17:26:39.050Z,956.00
2022-10-13T17:29:05.398Z,955.97
2022-10-13T17:31:31.758Z,955.89
2022-10-13T17:33:58.075Z,955.93
2022-10-13T17:36:24.419Z,955.96
2022-10-13T17:38:50.735Z,955.96
2022-10-13T17:41:17.061Z,955.97
2022-10-13T17:43:43.401Z,955.95
2022-10-13T17:46:34.595Z,955.98
2022-10-13T17:48:36.098Z,955.94
2022-10-13T17:51:02.442Z,955.97
2022-10-13T17:53:28.820Z,955.95
2022-10-13T17:55:55.142Z,955.92
2022-10-13T17:58:21.483Z,955.94
2022-10-13T18:01:11.955Z,955.99
2022-10-13T18:03:14.207Z,955.94
2022-10-13T18:05:40.536Z,955.94
2022-10-13T18:08:06.882Z,956.00
2022-10-13T18:10:50.890Z,956.04
2022-10-13T18:12:59.597Z,956.05
2022-10-13T18:15:25.940Z,956.10
2022-10-13T18:17:52.275Z,956.09
2022-10-13T18:20:18.650Z,956.07
2022-10-13T18:22:44.983Z,956.07
2022-10-13T18:25:11.325Z,956.07
2022-10-13T18:27:37.678Z,956.12
2022-10-13T18:30:04.020Z,956.07
2022-10-13T18:32:30.333Z,956.08
2022-10-13T18:34:56.657Z,956.11
2022-10-13T18:37:23.213Z,956.23
2022-10-13T18:39:49.343Z,956.17
2022-10-13T18:42:15.691Z,956.23
2022-10-13T18:44:42.038Z,956.19
2022-10-13T18:47:08.409Z,956.19
2022-10-13T18:49:34.753Z,956.14
2022-10-13T18:52:01.090Z,956.18
2022-10-13T18:54:27.433Z,956.19
2022-10-13T18:56:53.790Z,956.14
2022-10-13T18:59:20.131Z,956.18
2022-10-13T19:01:46.757Z,956.25
2022-10-13T19:04:13.093Z,956.23
2022-10-13T19:06:39.414Z,956.17
2022-10-13T19:09:05.785Z,956.20
2022-10-13T19:11:32.167Z,956.19
2022-10-13T19:13:58.504Z,956.19
2022-10-13T19:16:24.849Z,956.25
2022-10-13T19:18:51.174Z,956.22
2022-10-13T19:21:17.518Z,956.22
2022-10-13T19:23:43.850Z,956.19
2022-10-13T19:26:14.847Z,956.19
2022-10-13T19:28:36.606Z,956.22
2022-10-13T19:31:02.867Z,956.21
2022-10-13T19:33:29.215Z,956.17
2022-10-13T19:35:55.559Z,956.10
2022-10-13T19:38:21.935Z,956.06
2022-10-13T19:40:48.277Z,956.08
2022-10-13T19:43:14.597Z,956.13
2022-10-13T19:45:40.972Z,956.14
2022-10-13T19:48:07.300Z,956.14
2022-10-13T19:50:33.647Z,956.17
2022-10-13T19:52:59.969Z,956.18
2022-10-13T19:55:26.285Z,956.15
2022-10-13T19:57:52.633Z,956.22
2022-10-13T20:00:19.102Z,956.15
2022-10-13T20:02:45.431Z,956.23
2022-10-13T20:05:11.762Z,956.21
2022-10-13T20:07:38.132Z,956.19
2022-10-13T20:10:04.514Z,956.12
2022-10-13T20:12:30.848Z,956.17
2022-10-13T20:14:57.188Z,956.14
2022-10-13T20:17:23.859Z,956.17
2022-10-13T20:19:49.898Z,956.16
2022-10-13T20:22:16.236Z,956.17
2022-10-13T20:24:42.550Z,956.18
2022-10-13T20:27:08.900Z,956.18
2022-10-13T20:29:35.242Z,956.16
2022-10-13T20:32:01.580Z,956.10
2022-10-13T20:34:27.922Z,956.10
2022-10-13T20:36:54.264Z,956.09
2022-10-13T20:39:20.623Z,956.06
2022-10-13T20:41:46.963Z,956.07
2022-10-13T20:44:13.297Z,956.02
2022-10-13T20:46:39.642Z,956.03
2022-10-13T20:49:10.861Z,956.00
2022-10-13T20:51:32.328Z,956.00
2022-10-13T20:53:58.677Z,955.90
2022-10-13T20:56:25.012Z,955.93
2022-10-13T20:58:51.376Z,955.90
2022-10-13T21:01:17.785Z,955.90
2022-10-13T21:03:44.056Z,956.00
2022-10-13T21:06:10.450Z,955.92
2022-10-13T21:08:36.787Z,955.96
2022-10-13T21:11:03.103Z,955.93
2022-10-13T21:13:29.457Z,955.98
2022-10-13T21:15:55.775Z,955.88
2022-10-13T21:18:22.110Z,955.94
2022-10-13T21:20:48.488Z,955.84
2022-10-13T21:23:14.821Z,955.88
2022-10-13T21:25:41.140Z,955.89
2022-10-13T21:28:07.511Z,955.78
2022-10-13T21:30:33.847Z,955.81
2022-10-13T21:33:00.178Z,955.74
2022-10-13T21:35:26.518Z,955.67
2022-10-13T21:37:52.837Z,955.63
2022-10-13T21:40:19.185Z,955.60
2022-10-13T21:42:45.522Z,955.58
2022-10-13T21:45:11.844Z,955.58
2022-10-13T21:47:38.158Z,955.53
2022-10-13T21:50:04.526Z,955.49
2022-10-13T21:52:30.820Z,955.45
2022-10-13T21:54:57.145Z,955.51
2022-10-13T21:57:23.749Z,955.51
2022-10-13T21:59:49.806Z,955.52
2022-10-13T22:02:16.124Z,955.51
2022-10-13T22:04:42.449Z,955.49
2022-10-13T22:07:08.774Z,955.49
2022-10-13T22:09:35.119Z,955.39
2022-10-13T22:12:01.437Z,955.42
2022-10-13T22:14:27.779Z,955.43
2022-10-13T22:16:54.095Z,955.45
2022-10-13T22:19:20.456Z,955.46
2022-10-13T22:21:46.800Z,955.47
2022-10-13T22:24:13.119Z,955.62
2022-10-13T22:26:39.444Z,955.64
2022-10-13T22:29:05.878Z,955.60
2022-10-13T22:31:32.105Z,955.62
2022-10-13T22:33:58.453Z,955.59
2022-10-13T22:36:24.793Z,955.51
2022-10-13T22:38:51.112Z,955.55
2022-10-13T22:41:17.448Z,955.57
2022-10-13T22:43:43.790Z,955.60
2022-10-13T22:46:10.126Z,955.53
2022-10-13T22:48:40.546Z,955.53
2022-10-13T22:51:02.830Z,955.46
2022-10-13T22:53:29.153Z,955.53
2022-10-13T22:55:55.501Z,955.46
2022-10-13T22:58:21.845Z,955.51
2022-10-13T23:00:48.171Z,955.44
2022-10-13T23:03:14.552Z,955.47
2022-10-13T23:05:40.854Z,955.45
2022-10-13T23:08:07.195Z,955.46
2022-10-13T23:10:33.511Z,955.46
2022-10-13T23:12:59.832Z,955.39
2022-10-13T23:15:26.170Z,955.45
2022-10-13T23:17:52.492Z,955.45
2022-10-13T23:20:18.830Z,955.47
2022-10-13T23:22:45.178Z,955.48
2022-10-13T23:25:11.499Z,955.51
2022-10-13T23:27:37.844Z,955.47
2022-10-13T23:30:04.158Z,955.51
2022-10-13T23:32:30.482Z,955.43
2022-10-13T23:34:56.839Z,955.45
2022-10-13T23:37:23.570Z,955.46
2022-10-13T23:39:49.517Z,955.47
2022-10-13T23:42:15.844Z,955.48
2022-10-13T23:44:42.180Z,955.53
2022-10-13T23:47:08.504Z,955.49
2022-10-13T23:49:34.845Z,955.55
2022-10-13T23:52:01.185Z,955.59
2022-10-13T23:54:27.525Z,955.58
2022-10-13T23:56:53.849Z,955.59
2022-10-13T23:59:20.193Z,955.61
